createdAt,value
2022-10-03T00:01:37.713Z,0.9875
2022-10-03T00:04:33.447Z,0.5625
2022-10-03T00:07:36.264Z,1.1375
2022-10-03T00:11:26.994Z,0.8375
2022-10-03T00:14:23.588Z,0.7375
2022-10-03T00:17:24.164Z,0.775
2022-10-03T00:21:27.163Z,0.7625
2022-10-03T00:24:30.841Z,1.2375000000000003
2022-10-03T00:27:30.437Z,1.1875
2022-10-03T00:31:23.811Z,1.6624999999999999
2022-10-03T00:34:32.493Z,1.1500000000000001
2022-10-03T00:37:26.383Z,0.7125
2022-10-03T00:41:45.190Z,0.7125
2022-10-03T00:44:40.798Z,1.1375000000000002
2022-10-03T00:47:36.316Z,0.7375
2022-10-03T00:51:27.841Z,0.8875000000000001
2022-10-03T00:54:32.119Z,1.075
2022-10-03T00:57:48.796Z,0.6125
2022-10-03T01:01:39.146Z,1.3
2022-10-03T01:04:45.185Z,0.675
2022-10-03T01:07:32.563Z,0.9375
2022-10-03T01:11:29.326Z,0.925
2022-10-03T01:14:31.560Z,0.65
2022-10-03T01:17:37.790Z,1.25
2022-10-03T01:21:32.297Z,0.9625
2022-10-03T01:24:42.663Z,1
2022-10-03T01:27:24.574Z,1.1749999999999998
2022-10-03T01:31:26.358Z,0.75
2022-10-03T01:34:30.830Z,0.75
2022-10-03T01:37:29.251Z,0.8500000000000001
2022-10-03T01:41:29.924Z,0.875
2022-10-03T01:44:21.879Z,0.6375
2022-10-03T01:47:24.186Z,0.7625
2022-10-03T01:51:26.494Z,0.8375
2022-10-03T01:54:25.574Z,1.0250000000000001
2022-10-03T01:57:25.886Z,0.7625
2022-10-03T02:01:25.530Z,0.775
2022-10-03T02:04:35.494Z,1.2125
2022-10-03T02:07:29.149Z,0.9875
2022-10-03T02:11:30.316Z,0.7375
2022-10-03T02:14:27.399Z,0.6375
2022-10-03T02:17:28.367Z,0.8625
2022-10-03T02:21:20.791Z,0.7124999999999999
2022-10-03T02:24:31.587Z,1.1375
2022-10-03T02:27:37.205Z,0.925
2022-10-03T02:31:44.570Z,1.0625
2022-10-03T02:51:58.689Z,0.8500000000000001
2022-10-03T03:11:34.502Z,0.5874999999999999
2022-10-03T03:14:50.703Z,1.075
2022-10-03T03:17:27.669Z,0.5375
2022-10-03T03:21:26.565Z,1.375
2022-10-03T03:24:35.177Z,0.8625
2022-10-03T03:27:31.122Z,0.7625
2022-10-03T03:31:23.904Z,1.2125000000000001
2022-10-03T03:34:28.228Z,1.4875
2022-10-03T03:37:25.782Z,0.8
2022-10-03T03:41:46.529Z,0.8
2022-10-03T03:45:32.793Z,0.9125
2022-10-03T03:47:34.997Z,0.7625
2022-10-03T03:51:27.803Z,0.9875
2022-10-03T03:54:36.976Z,0.925
2022-10-03T03:57:34.435Z,0.775
2022-10-03T04:01:44.673Z,0.825
2022-10-03T04:04:36.048Z,0.95
2022-10-03T04:07:32.031Z,0.7124999999999999
2022-10-03T04:11:26.826Z,1.3375
2022-10-03T04:14:34.452Z,0.7124999999999999
2022-10-03T04:21:39.014Z,0.875
2022-10-03T04:24:35.867Z,0.75
2022-10-03T04:27:32.264Z,0.65
2022-10-03T04:31:33.667Z,1.5125
2022-10-03T04:34:33.654Z,1.2374999999999998
2022-10-03T04:37:23.917Z,0.8125
2022-10-03T04:41:25.967Z,1.0125
2022-10-03T04:44:38.945Z,0.875
2022-10-03T04:47:25.235Z,0.85
2022-10-03T04:51:23.099Z,1.0375
2022-10-03T04:54:27.443Z,0.975
2022-10-03T04:57:27.990Z,0.825
2022-10-03T05:01:22.217Z,1.1375000000000002
2022-10-03T05:04:29.610Z,1.5875000000000001
2022-10-03T05:07:25.105Z,1.0625
2022-10-03T05:11:35.488Z,0.7125
2022-10-03T05:14:25.070Z,0.625
2022-10-03T05:17:27.605Z,0.825
2022-10-03T05:21:28.611Z,0.65
2022-10-03T05:24:30.732Z,1.2625000000000002
2022-10-03T05:27:32.687Z,1.0625
2022-10-03T05:31:29.222Z,0.6
2022-10-03T05:34:31.562Z,1.0625
2022-10-03T05:37:34.179Z,0.85
2022-10-03T05:41:26.248Z,0.7875000000000001
2022-10-03T05:44:21.009Z,1.2375
2022-10-03T05:47:51.597Z,1.0374999999999999
2022-10-03T05:51:43.446Z,1.1125
2022-10-03T05:55:22.819Z,0.7125
2022-10-03T05:57:47.981Z,0.49999999999999994
2022-10-03T06:01:54.296Z,1.0125000000000002
2022-10-03T06:04:39.572Z,0.7375
2022-10-03T06:07:24.670Z,0.8250000000000001
2022-10-03T06:12:29.999Z,0.8500000000000001
2022-10-03T06:14:31.385Z,0.9624999999999999
2022-10-03T06:19:25.948Z,1.0875000000000001
2022-10-03T06:21:34.490Z,1.325
2022-10-03T06:42:26.099Z,0.65
2022-10-03T06:44:46.361Z,0.49999999999999994
2022-10-03T06:47:28.660Z,0.775
2022-10-03T07:02:10.362Z,0.75
2022-10-03T07:04:40.845Z,1.3125
2022-10-03T07:08:39.656Z,0.775
2022-10-03T07:11:34.583Z,0.9375
2022-10-03T07:31:37.655Z,0.5625
2022-10-03T07:35:03.235Z,0.6375
2022-10-03T07:41:29.428Z,0.75
2022-10-03T07:45:09.550Z,0.95
2022-10-03T07:48:22.246Z,0.35
2022-10-03T07:51:27.605Z,0.48750000000000004
2022-10-03T07:55:45.824Z,0.7250000000000001
2022-10-03T07:57:40.762Z,0.9500000000000001
2022-10-03T08:01:33.783Z,1.0625
2022-10-03T08:21:21.320Z,0.6625
2022-10-03T08:24:31.209Z,0.625
2022-10-03T08:27:31.447Z,0.7124999999999999
2022-10-03T08:31:35.290Z,0.8625
2022-10-03T08:34:49.555Z,0.8625
2022-10-03T08:42:20.747Z,0.7625000000000001
2022-10-03T08:46:13.604Z,0.65
2022-10-03T08:48:00.244Z,0.9875
2022-10-03T09:01:37.824Z,1.0750000000000002
2022-10-03T09:04:54.297Z,1.0375
2022-10-03T09:07:41.353Z,0.8375
2022-10-03T09:11:55.368Z,1.0125
2022-10-03T09:31:49.784Z,5.987500000000001
2022-10-03T09:34:41.492Z,4.4
2022-10-03T09:38:07.052Z,3.9875
2022-10-03T09:42:09.056Z,4.1875
2022-10-03T09:44:35.429Z,4.3625
2022-10-03T09:48:15.949Z,4.3625
2022-10-03T09:51:34.632Z,3.9
2022-10-03T09:55:35.095Z,3.7874999999999996
2022-10-03T09:57:51.954Z,3.7625
2022-10-03T10:01:28.823Z,4.2125
2022-10-03T10:05:19.603Z,3.225
2022-10-03T10:08:02.388Z,3.3375000000000004
2022-10-03T10:11:25.828Z,3.675
2022-10-03T10:14:30.070Z,2.825
2022-10-03T10:17:46.684Z,2.9000000000000004
2022-10-03T10:22:04.230Z,2.9875
2022-10-03T10:32:34.412Z,2.9
2022-10-03T10:35:15.638Z,2.8625
2022-10-03T10:37:50.620Z,3.1375
2022-10-03T10:51:46.299Z,3.4375
2022-10-03T11:01:54.379Z,3.05
2022-10-03T11:05:29.535Z,2.5
2022-10-03T11:12:25.963Z,3.1
2022-10-03T11:32:14.901Z,2.375
2022-10-03T11:36:58.216Z,2.3375000000000004
2022-10-03T11:37:31.377Z,2.425
2022-10-03T11:41:28.819Z,3.0375
2022-10-03T11:44:21.538Z,2.8499999999999996
2022-10-03T11:47:34.823Z,2.4375
2022-10-03T11:51:29.137Z,3.2
2022-10-03T11:54:31.487Z,1.4625
2022-10-03T11:57:27.022Z,2.55
2022-10-03T12:01:34.199Z,2
2022-10-03T12:04:25.237Z,2.55
2022-10-03T12:11:23.030Z,2.7874999999999996
2022-10-03T12:14:26.944Z,2.05
2022-10-03T12:17:30.594Z,2.4749999999999996
2022-10-03T12:21:22.282Z,2.675
2022-10-03T12:24:25.259Z,2.3375
2022-10-03T12:27:26.595Z,3.0125
2022-10-03T12:31:21.741Z,2.35
2022-10-03T12:34:33.733Z,2.125
2022-10-03T12:37:53.545Z,2.1125
2022-10-03T12:41:33.940Z,2.35
2022-10-03T12:44:34.592Z,1.5
2022-10-03T12:51:31.347Z,2.225
2022-10-03T12:54:33.581Z,2.65
2022-10-03T12:57:52.308Z,2.7125000000000004
2022-10-03T13:01:27.404Z,2.2874999999999996
2022-10-03T13:04:28.782Z,1.7625
2022-10-03T13:07:26.579Z,1.8
2022-10-03T13:11:29.681Z,2.0375
2022-10-03T13:14:43.785Z,1.6875
2022-10-03T13:17:27.266Z,1.725
2022-10-03T13:21:44.481Z,1.925
2022-10-03T13:24:31.195Z,2.25
2022-10-03T13:27:33.232Z,1.675
2022-10-03T13:31:29.357Z,1.8125
2022-10-03T13:34:20.036Z,3.1625
2022-10-03T13:37:27.325Z,1.975
2022-10-03T13:41:25.854Z,1.8874999999999997
2022-10-03T13:44:19.567Z,2.1625
2022-10-03T13:47:26.934Z,2.2375000000000003
2022-10-03T13:51:34.105Z,1.7000000000000002
2022-10-03T13:54:43.904Z,1.4625
2022-10-03T13:57:26.463Z,1.9125
2022-10-03T14:01:37.109Z,2.1
2022-10-03T14:04:49.034Z,1.8624999999999998
2022-10-03T14:07:34.004Z,1.975
2022-10-03T14:11:24.313Z,2.0625
2022-10-03T14:14:33.706Z,1.9000000000000004
2022-10-03T14:17:25.332Z,2.275
2022-10-03T14:21:43.172Z,1.9250000000000003
2022-10-03T14:24:37.035Z,2.0375
2022-10-03T14:27:35.609Z,1.9375
2022-10-03T14:31:23.384Z,2.0250000000000004
2022-10-03T14:34:32.657Z,1.8125000000000002
2022-10-03T14:37:32.441Z,1.725
2022-10-03T14:41:19.834Z,1.9125
2022-10-03T14:44:22.011Z,1.775
2022-10-03T14:47:18.152Z,1.6125
2022-10-03T14:51:21.543Z,2
2022-10-03T14:54:20.932Z,2.4125
2022-10-03T14:57:29.463Z,1.7875
2022-10-03T15:01:23.439Z,2.25
2022-10-03T15:04:28.047Z,1.7374999999999998
2022-10-03T15:07:35.817Z,1.7374999999999998
2022-10-03T15:11:21.861Z,1.575
2022-10-03T15:14:18.912Z,2.475
2022-10-03T15:17:20.833Z,1.425
2022-10-03T15:21:18.138Z,2.1
2022-10-03T15:24:25.253Z,1.9874999999999998
2022-10-03T15:27:22.892Z,2.1374999999999997
2022-10-03T15:31:31.615Z,1.9375
2022-10-03T15:34:22.850Z,2.0875
2022-10-03T15:37:23.088Z,2.0374999999999996
2022-10-03T15:41:21.403Z,2.3499999999999996
2022-10-03T15:44:22.151Z,2.1500000000000004
2022-10-03T15:47:21.322Z,2.0375
2022-10-03T15:51:19.380Z,2.4875
2022-10-03T15:54:21.655Z,2.025
2022-10-03T15:57:23.561Z,1.8
2022-10-03T16:01:21.782Z,2.725
2022-10-03T16:04:22.541Z,2.35
2022-10-03T16:07:27.861Z,1.775
2022-10-03T16:11:20.921Z,1.7125
2022-10-03T16:14:23.014Z,2.925
2022-10-03T16:17:24.133Z,1.6875
2022-10-03T16:21:55.884Z,1.9124999999999999
2022-10-03T16:24:26.402Z,1.9000000000000001
2022-10-03T16:27:20.324Z,1.6
2022-10-03T16:31:24.549Z,1.475
2022-10-03T16:34:19.348Z,1.9875
2022-10-03T16:37:19.801Z,1.7125
2022-10-03T16:41:20.905Z,1.8375
2022-10-03T16:44:22.193Z,1.925
2022-10-03T16:47:17.728Z,1.3250000000000002
2022-10-03T16:51:20.161Z,2.375
2022-10-03T16:54:18.972Z,1.625
2022-10-03T16:57:24.417Z,1.6875
2022-10-03T17:01:28.350Z,1.6124999999999998
2022-10-03T17:04:22.917Z,2.0125
2022-10-03T17:07:21.004Z,1.75
2022-10-03T17:11:19.669Z,2.2750000000000004
2022-10-03T17:14:18.934Z,1.7999999999999998
2022-10-03T17:17:27.454Z,1.5375
2022-10-03T17:21:25.172Z,2.2249999999999996
2022-10-03T17:24:27.039Z,1.6
2022-10-03T17:27:24.100Z,1.8625000000000003
2022-10-03T17:31:27.411Z,1.775
2022-10-03T17:34:22.681Z,1.6125
2022-10-03T17:37:47.571Z,2.2
2022-10-03T17:41:23.025Z,2.2125
2022-10-03T17:44:33.734Z,1.8375
2022-10-03T17:47:22.430Z,2.6125
2022-10-03T17:51:30.490Z,3.6875
2022-10-03T17:54:19.845Z,2.6750000000000003
2022-10-03T17:57:22.586Z,2.6375
2022-10-03T18:01:22.516Z,2.5125
2022-10-03T18:04:19.354Z,1.775
2022-10-03T18:07:19.881Z,2.2375000000000003
2022-10-03T18:11:23.171Z,2.1999999999999997
2022-10-03T18:14:31.614Z,2.1500000000000004
2022-10-03T18:17:23.942Z,2.0625
2022-10-03T18:21:29.826Z,2.2125
2022-10-03T18:25:30.000Z,2.025
2022-10-03T18:28:11.769Z,2.45
2022-10-03T18:31:18.353Z,1.6375000000000002
2022-10-03T18:34:20.908Z,1.8125
2022-10-03T18:38:03.001Z,2.0125
2022-10-03T18:41:17.268Z,2.3125
2022-10-03T18:44:18.801Z,1.85
2022-10-03T18:47:22.958Z,1.775
2022-10-03T18:51:25.704Z,1.9625
2022-10-03T18:54:29.156Z,2.3625
2022-10-03T18:57:22.581Z,2.3499999999999996
2022-10-03T19:01:21.409Z,2.3875
2022-10-03T19:04:32.605Z,2.65
2022-10-03T19:07:54.635Z,1.9874999999999998
2022-10-03T19:11:29.624Z,1.5999999999999999
2022-10-03T19:14:32.061Z,1.2
2022-10-03T19:17:34.223Z,1.925
2022-10-03T19:21:20.232Z,1.925
2022-10-03T19:24:34.521Z,1.375
2022-10-03T19:27:21.082Z,1.425
2022-10-03T19:31:26.679Z,1.975
2022-10-03T19:34:22.880Z,3.5500000000000003
2022-10-03T19:37:23.968Z,2.6125
2022-10-03T19:41:26.856Z,2.0375
2022-10-03T19:44:20.435Z,1.4249999999999998
2022-10-03T19:47:20.700Z,1.9
2022-10-03T19:51:22.763Z,1.4375
2022-10-03T19:54:30.854Z,1.8249999999999997
2022-10-03T19:57:20.864Z,1.3250000000000002
2022-10-03T20:01:16.917Z,1.8250000000000002
2022-10-03T20:04:31.451Z,1.4249999999999998
2022-10-03T20:07:27.405Z,2.2
2022-10-03T20:11:26.569Z,1.8625
2022-10-03T20:14:20.405Z,1.2625
2022-10-03T20:17:20.854Z,1.4375
2022-10-03T20:21:19.229Z,1.5875
2022-10-03T20:24:25.585Z,1.4249999999999998
2022-10-03T20:27:30.793Z,2.625
2022-10-03T20:31:22.663Z,1.6875
2022-10-03T20:34:23.287Z,2.325
2022-10-03T20:37:30.722Z,1.7875
2022-10-03T20:41:26.945Z,1.525
2022-10-03T20:44:30.580Z,1.2125
2022-10-03T20:47:36.613Z,1.9625000000000001
2022-10-03T20:51:22.288Z,1.875
2022-10-03T20:54:20.268Z,1.775
2022-10-03T20:57:21.428Z,1.975
2022-10-03T21:01:22.098Z,1.7999999999999998
2022-10-03T21:04:24.248Z,2.1625
2022-10-03T21:07:27.095Z,1.8875000000000002
2022-10-03T21:11:22.044Z,1.9
2022-10-03T21:14:23.646Z,1.7625000000000002
2022-10-03T21:17:19.108Z,1.95
2022-10-03T21:21:22.242Z,1.775
2022-10-03T21:24:21.817Z,1.9375
2022-10-03T21:27:19.842Z,1.6625
2022-10-03T21:31:28.142Z,1.9
2022-10-03T21:34:24.874Z,1.6875
2022-10-03T21:37:25.328Z,1.875
2022-10-03T21:41:24.832Z,2.3125
2022-10-03T21:44:46.814Z,1.6375
2022-10-03T21:47:28.277Z,1.7875
2022-10-03T21:51:25.891Z,1.8125
2022-10-03T21:54:32.130Z,1.3125
2022-10-03T21:57:28.206Z,1.7625
2022-10-03T22:01:25.944Z,1.7374999999999998
2022-10-03T22:04:25.895Z,1.7875
2022-10-03T22:07:26.505Z,1.475
2022-10-03T22:11:29.129Z,1.975
2022-10-03T22:14:28.842Z,1.75
2022-10-03T22:17:24.776Z,1.2375
2022-10-03T22:21:25.973Z,1.6625
2022-10-03T22:24:26.950Z,1.7374999999999998
2022-10-03T22:27:21.585Z,1.3
2022-10-03T22:31:27.025Z,1.8625
2022-10-03T22:34:32.281Z,1.5625
2022-10-03T22:37:17.992Z,1.9125
2022-10-03T22:41:22.684Z,1.9874999999999998
2022-10-03T22:44:19.393Z,1.9625
2022-10-03T22:47:22.203Z,1.35
2022-10-03T22:51:20.384Z,1.95
2022-10-03T22:54:18.069Z,2.0375
2022-10-03T22:57:17.998Z,1.6
2022-10-03T23:01:16.654Z,1.4625
2022-10-03T23:04:24.633Z,2.0625
2022-10-03T23:07:38.457Z,1.725
2022-10-03T23:11:20.958Z,1.8375
2022-10-03T23:14:22.708Z,1.65
2022-10-03T23:17:36.078Z,1.8625000000000003
2022-10-03T23:21:17.220Z,1.6875
2022-10-03T23:24:24.725Z,1.575
2022-10-03T23:31:50.457Z,2.325
2022-10-03T23:34:45.702Z,1.55
2022-10-03T23:37:49.718Z,1.9375
2022-10-03T23:41:29.301Z,1.625
2022-10-03T23:44:52.195Z,1.7000000000000002
2022-10-03T23:47:20.027Z,2.1125
2022-10-03T23:51:19.554Z,1.3875
2022-10-03T23:54:18.886Z,1.5499999999999998
2022-10-03T23:57:18.660Z,1.6875
